sensor_id;sensor_type;location;lat;lon;timestamp;pressure;altitude;pressure_sealevel;temperature;humidity
68594;BME280;55563;52.416;13.548;2024-03-22T00:01:44;101696.25;;;8.27;100.00
68594;BME280;55563;52.416;13.548;2024-03-22T00:03:44;101693.41;;;8.28;100.00
68594;BME280;55563;52.416;13.548;2024-03-22T00:05:45;101690.78;;;8.28;100.00
68594;BME280;55563;52.416;13.548;2024-03-22T00:07:46;101694.28;;;8.22;100.00
68594;BME280;55563;52.416;13.548;2024-03-22T00:09:46;101688.22;;;8.22;100.00
68594;BME280;55563;52.416;13.548;2024-03-22T00:11:47;101691.66;;;8.22;100.00
68594;BME280;55563;52.416;13.548;2024-03-22T00:13:48;101686.38;;;8.29;100.00
68594;BME280;55563;52.416;13.548;2024-03-22T00:15:48;101678.75;;;8.21;100.00
68594;BME280;55563;52.416;13.548;2024-03-22T00:17:49;101684.16;;;8.26;100.00
68594;BME280;55563;52.416;13.548;2024-03-22T00:19:49;101682.56;;;8.25;100.00
68594;BME280;55563;52.416;13.548;2024-03-22T00:21:50;101677.31;;;8.25;100.00
68594;BME280;55563;52.416;13.548;2024-03-22T00:23:50;101673.13;;;8.24;100.00
68594;BME280;55563;52.416;13.548;2024-03-22T00:25:51;101664.47;;;8.23;100.00
68594;BME280;55563;52.416;13.548;2024-03-22T00:27:51;101668.28;;;8.21;100.00
68594;BME280;55563;52.416;13.548;2024-03-22T00:29:52;101662.69;;;8.17;100.00
68594;BME280;55563;52.416;13.548;2024-03-22T00:31:53;101660.88;;;8.18;100.00
68594;BME280;55563;52.416;13.548;2024-03-22T00:33:53;101660.88;;;8.18;100.00
68594;BME280;55563;52.416;13.548;2024-03-22T00:35:54;101650.19;;;8.19;100.00
68594;BME280;55563;52.416;13.548;2024-03-22T00:37:54;101653.19;;;8.23;100.00
68594;BME280;55563;52.416;13.548;2024-03-22T00:39:55;101651.56;;;8.22;100.00
68594;BME280;55563;52.416;13.548;2024-03-22T00:41:55;101652.16;;;8.24;100.00
68594;BME280;55563;52.416;13.548;2024-03-22T00:43:56;101651.00;;;8.20;100.00
68594;BME280;55563;52.416;13.548;2024-03-22T00:45:57;101644.72;;;8.21;100.00
68594;BME280;55563;52.416;13.548;2024-03-22T00:47:58;101649.16;;;8.20;100.00
68594;BME280;55563;52.416;13.548;2024-03-22T00:49:59;101645.53;;;8.21;100.00
68594;BME280;55563;52.416;13.548;2024-03-22T00:52:02;101644.50;;;8.22;100.00
68594;BME280;55563;52.416;13.548;2024-03-22T00:54:03;101641.44;;;8.25;100.00
68594;BME280;55563;52.416;13.548;2024-03-22T00:56:04;101644.47;;;8.29;100.00
68594;BME280;55563;52.416;13.548;2024-03-22T00:58:04;101641.41;;;8.32;100.00
68594;BME280;55563;52.416;13.548;2024-03-22T01:00:05;101639.97;;;8.36;100.00
68594;BME280;55563;52.416;13.548;2024-03-22T01:02:06;101639.75;;;8.38;100.00
68594;BME280;55563;52.416;13.548;2024-03-22T01:04:07;101639.41;;;8.34;100.00
68594;BME280;55563;52.416;13.548;2024-03-22T01:06:09;101651.69;;;8.34;100.00
68594;BME280;55563;52.416;13.548;2024-03-22T01:08:10;101637.56;;;8.35;100.00
68594;BME280;55563;52.416;13.548;2024-03-22T01:10:11;101637.56;;;8.35;100.00
68594;BME280;55563;52.416;13.548;2024-03-22T01:12:15;101627.66;;;8.37;100.00
68594;BME280;55563;52.416;13.548;2024-03-22T01:14:15;101629.06;;;8.39;100.00
68594;BME280;55563;52.416;13.548;2024-03-22T01:16:16;101615.84;;;8.27;100.00
68594;BME280;55563;52.416;13.548;2024-03-22T01:18:17;101615.50;;;8.24;100.00
68594;BME280;55563;52.416;13.548;2024-03-22T01:20:17;101619.34;;;8.21;100.00
68594;BME280;55563;52.416;13.548;2024-03-22T01:22:18;101619.59;;;8.20;100.00
68594;BME280;55563;52.416;13.548;2024-03-22T01:24:18;101616.16;;;8.19;100.00
68594;BME280;55563;52.416;13.548;2024-03-22T01:26:19;101623.41;;;8.17;100.00
68594;BME280;55563;52.416;13.548;2024-03-22T01:28:19;101608.66;;;8.05;100.00
68594;BME280;55563;52.416;13.548;2024-03-22T01:30:20;101609.66;;;8.04;100.00
68594;BME280;55563;52.416;13.548;2024-03-22T01:32:21;101612.66;;;8.07;100.00
68594;BME280;55563;52.416;13.548;2024-03-22T01:34:22;101606.03;;;8.05;100.00
68594;BME280;55563;52.416;13.548;2024-03-22T01:36:22;101604.38;;;8.10;100.00
68594;BME280;55563;52.416;13.548;2024-03-22T01:38:23;101607.25;;;8.02;100.00
68594;BME280;55563;52.416;13.548;2024-03-22T01:40:23;101598.69;;;8.13;100.00
68594;BME280;55563;52.416;13.548;2024-03-22T01:42:24;101605.53;;;8.14;100.00
68594;BME280;55563;52.416;13.548;2024-03-22T01:44:27;101607.75;;;8.11;100.00
68594;BME280;55563;52.416;13.548;2024-03-22T01:46:28;101604.78;;;8.07;100.00
68594;BME280;55563;52.416;13.548;2024-03-22T01:48:29;101599.13;;;8.10;100.00
68594;BME280;55563;52.416;13.548;2024-03-22T01:50:30;101599.19;;;8.04;100.00
68594;BME280;55563;52.416;13.548;2024-03-22T01:52:31;101594.97;;;8.03;100.00
68594;BME280;55563;52.416;13.548;2024-03-22T01:54:32;101594.81;;;7.98;100.00
68594;BME280;55563;52.416;13.548;2024-03-22T01:56:32;101586.91;;;8.04;100.00
68594;BME280;55563;52.416;13.548;2024-03-22T01:58:33;101583.69;;;8.02;100.00
68594;BME280;55563;52.416;13.548;2024-03-22T02:00:34;101583.44;;;8.10;100.00
68594;BME280;55563;52.416;13.548;2024-03-22T02:02:34;101575.19;;;8.07;100.00
68594;BME280;55563;52.416;13.548;2024-03-22T02:04:35;101580.00;;;8.10;100.00
68594;BME280;55563;52.416;13.548;2024-03-22T02:06:36;101573.59;;;8.06;100.00
68594;BME280;55563;52.416;13.548;2024-03-22T02:08:36;101580.66;;;8.05;100.00
68594;BME280;55563;52.416;13.548;2024-03-22T02:10:37;101573.81;;;8.04;100.00
68594;BME280;55563;52.416;13.548;2024-03-22T02:12:38;101572.97;;;8.10;100.00
68594;BME280;55563;52.416;13.548;2024-03-22T02:14:39;101565.09;;;8.10;100.00
68594;BME280;55563;52.416;13.548;2024-03-22T02:16:40;101568.72;;;8.09;100.00
68594;BME280;55563;52.416;13.548;2024-03-22T02:18:40;101564.06;;;8.11;100.00
68594;BME280;55563;52.416;13.548;2024-03-22T02:20:41;101574.31;;;8.13;100.00
68594;BME280;55563;52.416;13.548;2024-03-22T02:22:42;101564.19;;;8.16;100.00
68594;BME280;55563;52.416;13.548;2024-03-22T02:24:42;101552.50;;;8.19;100.00
68594;BME280;55563;52.416;13.548;2024-03-22T02:26:43;101561.59;;;8.16;100.00
68594;BME280;55563;52.416;13.548;2024-03-22T02:28:43;101558.91;;;8.23;100.00
68594;BME280;55563;52.416;13.548;2024-03-22T02:30:44;101561.72;;;8.21;100.00
68594;BME280;55563;52.416;13.548;2024-03-22T02:32:44;101561.88;;;8.26;100.00
68594;BME280;55563;52.416;13.548;2024-03-22T02:34:45;101556.06;;;8.24;100.00
68594;BME280;55563;52.416;13.548;2024-03-22T02:36:45;101551.03;;;8.23;100.00
68594;BME280;55563;52.416;13.548;2024-03-22T02:38:45;101548.44;;;8.05;100.00
68594;BME280;55563;52.416;13.548;2024-03-22T02:40:47;101547.53;;;8.11;100.00
68594;BME280;55563;52.416;13.548;2024-03-22T02:42:48;101542.41;;;8.04;100.00
68594;BME280;55563;52.416;13.548;2024-03-22T02:44:48;101534.81;;;7.96;100.00
68594;BME280;55563;52.416;13.548;2024-03-22T02:46:49;101537.69;;;7.95;100.00
68594;BME280;55563;52.416;13.548;2024-03-22T02:48:50;101536.81;;;8.01;100.00
68594;BME280;55563;52.416;13.548;2024-03-22T02:50:55;101534.75;;;8.03;100.00
68594;BME280;55563;52.416;13.548;2024-03-22T02:52:56;101533.28;;;8.07;100.00
68594;BME280;55563;52.416;13.548;2024-03-22T02:54:56;101529.47;;;8.09;100.00
68594;BME280;55563;52.416;13.548;2024-03-22T02:56:57;101523.28;;;8.04;100.00
68594;BME280;55563;52.416;13.548;2024-03-22T02:58:57;101522.63;;;8.08;100.00
68594;BME280;55563;52.416;13.548;2024-03-22T03:00:58;101510.75;;;8.06;100.00
68594;BME280;55563;52.416;13.548;2024-03-22T03:02:59;101522.47;;;8.03;100.00
68594;BME280;55563;52.416;13.548;2024-03-22T03:04:59;101514.31;;;8.11;100.00
68594;BME280;55563;52.416;13.548;2024-03-22T03:07:00;101511.34;;;8.08;100.00
68594;BME280;55563;52.416;13.548;2024-03-22T03:09:01;101505.41;;;8.01;100.00
68594;BME280;55563;52.416;13.548;2024-03-22T03:11:02;101501.53;;;8.03;100.00
68594;BME280;55563;52.416;13.548;2024-03-22T03:13:02;101510.47;;;8.14;100.00
68594;BME280;55563;52.416;13.548;2024-03-22T03:15:03;101500.00;;;8.14;100.00
68594;BME280;55563;52.416;13.548;2024-03-22T03:17:04;101492.41;;;8.06;100.00
68594;BME280;55563;52.416;13.548;2024-03-22T03:19:05;101494.31;;;8.17;100.00
68594;BME280;55563;52.416;13.548;2024-03-22T03:21:06;101484.28;;;8.14;100.00
68594;BME280;55563;52.416;13.548;2024-03-22T03:23:06;101483.50;;;7.95;100.00
68594;BME280;55563;52.416;13.548;2024-03-22T03:25:07;101482.06;;;7.99;100.00
68594;BME280;55563;52.416;13.548;2024-03-22T03:27:08;101482.41;;;8.03;100.00
68594;BME280;55563;52.416;13.548;2024-03-22T03:29:08;101478.31;;;8.07;100.00
68594;BME280;55563;52.416;13.548;2024-03-22T03:31:09;101468.28;;;8.04;100.00
68594;BME280;55563;52.416;13.548;2024-03-22T03:33:10;101473.00;;;8.13;100.00
68594;BME280;55563;52.416;13.548;2024-03-22T03:35:10;101457.38;;;8.07;100.00
68594;BME280;55563;52.416;13.548;2024-03-22T03:37:11;101449.66;;;8.12;100.00
68594;BME280;55563;52.416;13.548;2024-03-22T03:39:12;101451.84;;;8.15;100.00
68594;BME280;55563;52.416;13.548;2024-03-22T03:41:12;101446.75;;;8.02;100.00
68594;BME280;55563;52.416;13.548;2024-03-22T03:43:13;101445.75;;;8.03;100.00
68594;BME280;55563;52.416;13.548;2024-03-22T03:45:13;101435.41;;;8.08;100.00
68594;BME280;55563;52.416;13.548;2024-03-22T03:47:14;101435.19;;;8.09;100.00
68594;BME280;55563;52.416;13.548;2024-03-22T03:49:14;101424.47;;;7.99;100.00
68594;BME280;55563;52.416;13.548;2024-03-22T03:51:15;101425.81;;;8.02;100.00
68594;BME280;55563;52.416;13.548;2024-03-22T03:53:15;101426.06;;;8.00;100.00
68594;BME280;55563;52.416;13.548;2024-03-22T03:55:16;101431.78;;;8.09;100.00
68594;BME280;55563;52.416;13.548;2024-03-22T03:57:16;101437.56;;;8.11;100.00
68594;BME280;55563;52.416;13.548;2024-03-22T03:59:17;101428.50;;;8.13;100.00
68594;BME280;55563;52.416;13.548;2024-03-22T04:01:18;101424.06;;;8.14;100.00
68594;BME280;55563;52.416;13.548;2024-03-22T04:03:18;101426.91;;;8.12;100.00
68594;BME280;55563;52.416;13.548;2024-03-22T04:05:19;101423.25;;;8.13;100.00
68594;BME280;55563;52.416;13.548;2024-03-22T04:07:21;101421.09;;;8.10;100.00
68594;BME280;55563;52.416;13.548;2024-03-22T04:09:21;101414.94;;;8.05;100.00
68594;BME280;55563;52.416;13.548;2024-03-22T04:11:22;101414.47;;;8.08;100.00
68594;BME280;55563;52.416;13.548;2024-03-22T04:13:24;101407.63;;;8.07;100.00
68594;BME280;55563;52.416;13.548;2024-03-22T04:15:24;101414.56;;;8.01;100.00
68594;BME280;55563;52.416;13.548;2024-03-22T04:17:25;101414.47;;;8.08;100.00
68594;BME280;55563;52.416;13.548;2024-03-22T04:19:25;101408.66;;;8.06;100.00
68594;BME280;55563;52.416;13.548;2024-03-22T04:21:26;101401.25;;;8.03;100.00
68594;BME280;55563;52.416;13.548;2024-03-22T04:23:26;101403.06;;;8.02;100.00
68594;BME280;55563;52.416;13.548;2024-03-22T04:25:27;101384.97;;;8.01;100.00
68594;BME280;55563;52.416;13.548;2024-03-22T04:27:28;101383.13;;;8.01;100.00
68594;BME280;55563;52.416;13.548;2024-03-22T04:29:29;101387.47;;;7.96;100.00
68594;BME280;55563;52.416;13.548;2024-03-22T04:31:30;101385.53;;;8.03;100.00
68594;BME280;55563;52.416;13.548;2024-03-22T04:33:32;101381.44;;;7.95;100.00
68594;BME280;55563;52.416;13.548;2024-03-22T04:35:32;101387.47;;;7.96;100.00
68594;BME280;55563;52.416;13.548;2024-03-22T04:37:33;101377.34;;;7.99;100.00
68594;BME280;55563;52.416;13.548;2024-03-22T04:39:33;101385.41;;;7.98;100.00
68594;BME280;55563;52.416;13.548;2024-03-22T04:41:34;101374.28;;;8.02;100.00
68594;BME280;55563;52.416;13.548;2024-03-22T04:43:35;101375.41;;;7.95;100.00
68594;BME280;55563;52.416;13.548;2024-03-22T04:45:35;101369.81;;;7.91;100.00
68594;BME280;55563;52.416;13.548;2024-03-22T04:47:36;101370.59;;;7.92;100.00
68594;BME280;55563;52.416;13.548;2024-03-22T04:49:38;101370.81;;;7.90;100.00
68594;BME280;55563;52.416;13.548;2024-03-22T04:51:38;101372.16;;;7.81;100.00
68594;BME280;55563;52.416;13.548;2024-03-22T04:53:39;101361.25;;;7.84;100.00
68594;BME280;55563;52.416;13.548;2024-03-22T04:55:39;101362.84;;;7.85;100.00
68594;BME280;55563;52.416;13.548;2024-03-22T04:57:44;101351.66;;;7.78;100.00
68594;BME280;55563;52.416;13.548;2024-03-22T04:59:45;101350.69;;;7.91;100.00
68594;BME280;55563;52.416;13.548;2024-03-22T05:01:45;101341.91;;;7.85;100.00
68594;BME280;55563;52.416;13.548;2024-03-22T05:03:46;101336.94;;;7.95;100.00
68594;BME280;55563;52.416;13.548;2024-03-22T05:05:49;101341.59;;;7.93;100.00
68594;BME280;55563;52.416;13.548;2024-03-22T05:07:50;101335.19;;;7.89;100.00
68594;BME280;55563;52.416;13.548;2024-03-22T05:09:51;101331.44;;;7.97;100.00
68594;BME280;55563;52.416;13.548;2024-03-22T05:11:51;101339.50;;;7.83;100.00
68594;BME280;55563;52.416;13.548;2024-03-22T05:13:52;101332.50;;;7.96;100.00
68594;BME280;55563;52.416;13.548;2024-03-22T05:15:53;101333.59;;;7.88;100.00
68594;BME280;55563;52.416;13.548;2024-03-22T05:17:56;101331.91;;;7.94;100.00
68594;BME280;55563;52.416;13.548;2024-03-22T05:19:59;101335.25;;;8.01;100.00
68594;BME280;55563;52.416;13.548;2024-03-22T05:21:59;101332.63;;;8.01;100.00
68594;BME280;55563;52.416;13.548;2024-03-22T05:24:00;101334.53;;;7.94;100.00
68594;BME280;55563;52.416;13.548;2024-03-22T05:26:01;101325.06;;;7.93;100.00
68594;BME280;55563;52.416;13.548;2024-03-22T05:28:01;101323.47;;;7.92;100.00
68594;BME280;55563;52.416;13.548;2024-03-22T05:30:02;101325.41;;;7.96;100.00
68594;BME280;55563;52.416;13.548;2024-03-22T05:32:05;101313.94;;;7.97;100.00
68594;BME280;55563;52.416;13.548;2024-03-22T05:34:06;101307.00;;;8.03;100.00
68594;BME280;55563;52.416;13.548;2024-03-22T05:36:06;101309.84;;;8.01;100.00
68594;BME280;55563;52.416;13.548;2024-03-22T05:38:07;101300.41;;;8.00;100.00
68594;BME280;55563;52.416;13.548;2024-03-22T05:40:08;101307.09;;;7.96;100.00
68594;BME280;55563;52.416;13.548;2024-03-22T05:42:09;101302.22;;;8.00;100.00
68594;BME280;55563;52.416;13.548;2024-03-22T05:44:09;101297.34;;;8.03;100.00
68594;BME280;55563;52.416;13.548;2024-03-22T05:46:10;101295.53;;;8.04;100.00
68594;BME280;55563;52.416;13.548;2024-03-22T05:48:11;101293.91;;;8.03;100.00
68594;BME280;55563;52.416;13.548;2024-03-22T05:50:11;101297.81;;;8.12;100.00
68594;BME280;55563;52.416;13.548;2024-03-22T05:52:12;101299.41;;;8.13;100.00
68594;BME280;55563;52.416;13.548;2024-03-22T05:54:13;101297.13;;;8.16;100.00
68594;BME280;55563;52.416;13.548;2024-03-22T05:56:13;101301.13;;;8.19;100.00
68594;BME280;55563;52.416;13.548;2024-03-22T05:58:14;101302.47;;;8.21;100.00
68594;BME280;55563;52.416;13.548;2024-03-22T06:00:15;101297.91;;;8.17;100.00
68594;BME280;55563;52.416;13.548;2024-03-22T06:02:15;101288.59;;;8.21;100.00
68594;BME280;55563;52.416;13.548;2024-03-22T06:04:16;101287.09;;;8.13;100.00
68594;BME280;55563;52.416;13.548;2024-03-22T06:06:17;101281.28;;;8.11;100.00
68594;BME280;55563;52.416;13.548;2024-03-22T06:08:17;101265.38;;;8.13;100.00
68594;BME280;55563;52.416;13.548;2024-03-22T06:10:20;101273.47;;;8.23;100.00
68594;BME280;55563;52.416;13.548;2024-03-22T06:12:21;101278.22;;;8.26;100.00
68594;BME280;55563;52.416;13.548;2024-03-22T06:14:22;101274.16;;;8.30;100.00
68594;BME280;55563;52.416;13.548;2024-03-22T06:16:22;101267.09;;;8.30;100.00
68594;BME280;55563;52.416;13.548;2024-03-22T06:18:23;101259.56;;;8.22;100.00
68594;BME280;55563;52.416;13.548;2024-03-22T06:20:24;101266.31;;;8.30;100.00
68594;BME280;55563;52.416;13.548;2024-03-22T06:22:24;101262.53;;;8.26;100.00
68594;BME280;55563;52.416;13.548;2024-03-22T06:24:25;101257.75;;;8.35;100.00
68594;BME280;55563;52.416;13.548;2024-03-22T06:26:25;101264.59;;;8.36;100.00
68594;BME280;55563;52.416;13.548;2024-03-22T06:28:28;101257.31;;;8.49;100.00
68594;BME280;55563;52.416;13.548;2024-03-22T06:30:29;101251.97;;;8.56;100.00
68594;BME280;55563;52.416;13.548;2024-03-22T06:32:29;101253.09;;;8.60;100.00
68594;BME280;55563;52.416;13.548;2024-03-22T06:34:30;101258.13;;;8.61;100.00
68594;BME280;55563;52.416;13.548;2024-03-22T06:36:31;101252.66;;;8.63;100.00
68594;BME280;55563;52.416;13.548;2024-03-22T06:38:33;101241.81;;;8.59;100.00
68594;BME280;55563;52.416;13.548;2024-03-22T06:40:34;101248.97;;;8.64;100.00
68594;BME280;55563;52.416;13.548;2024-03-22T06:42:35;101242.16;;;8.63;100.00
68594;BME280;55563;52.416;13.548;2024-03-22T06:44:35;101245.13;;;8.66;100.00
68594;BME280;55563;52.416;13.548;2024-03-22T06:46:36;101245.34;;;8.65;100.00
68594;BME280;55563;52.416;13.548;2024-03-22T06:48:37;101242.81;;;8.70;100.00
68594;BME280;55563;52.416;13.548;2024-03-22T06:50:38;101247.38;;;8.74;100.00
68594;BME280;55563;52.416;13.548;2024-03-22T06:52:38;101240.78;;;8.72;100.00
68594;BME280;55563;52.416;13.548;2024-03-22T06:54:39;101240.78;;;8.72;100.00
68594;BME280;55563;52.416;13.548;2024-03-22T06:56:40;101242.34;;;8.73;100.00
68594;BME280;55563;52.416;13.548;2024-03-22T06:58:41;101239.06;;;8.78;100.00
68594;BME280;55563;52.416;13.548;2024-03-22T07:00:42;101239.06;;;8.78;100.00
68594;BME280;55563;52.416;13.548;2024-03-22T07:02:42;101226.97;;;8.77;100.00
68594;BME280;55563;52.416;13.548;2024-03-22T07:04:43;101233.56;;;8.79;100.00
68594;BME280;55563;52.416;13.548;2024-03-22T07:06:44;101227.63;;;8.84;100.00
68594;BME280;55563;52.416;13.548;2024-03-22T07:08:44;101228.44;;;8.84;100.00
68594;BME280;55563;52.416;13.548;2024-03-22T07:10:45;101225.13;;;8.89;100.00
68594;BME280;55563;52.416;13.548;2024-03-22T07:12:47;101218.28;;;8.88;100.00
68594;BME280;55563;52.416;13.548;2024-03-22T07:14:48;101218.94;;;8.95;100.00
68594;BME280;55563;52.416;13.548;2024-03-22T07:16:48;101219.53;;;8.97;100.00
68594;BME280;55563;52.416;13.548;2024-03-22T07:18:49;101218.63;;;8.91;100.00
68594;BME280;55563;52.416;13.548;2024-03-22T07:20:50;101216.00;;;8.91;100.00
68594;BME280;55563;52.416;13.548;2024-03-22T07:22:51;101210.97;;;9.01;100.00
68594;BME280;55563;52.416;13.548;2024-03-22T07:24:52;101214.34;;;9.02;100.00
68594;BME280;55563;52.416;13.548;2024-03-22T07:26:53;101212.09;;;9.05;100.00
68594;BME280;55563;52.416;13.548;2024-03-22T07:28:53;101211.38;;;9.10;100.00
68594;BME280;55563;52.416;13.548;2024-03-22T07:30:54;101206.94;;;9.10;100.00
68594;BME280;55563;52.416;13.548;2024-03-22T07:32:55;101212.28;;;9.15;100.00
68594;BME280;55563;52.416;13.548;2024-03-22T07:34:56;101204.34;;;9.27;100.00
68594;BME280;55563;52.416;13.548;2024-03-22T07:36:57;101207.84;;;9.33;100.00
68594;BME280;55563;52.416;13.548;2024-03-22T07:38:57;101198.38;;;9.32;100.00
68594;BME280;55563;52.416;13.548;2024-03-22T07:40:58;101202.38;;;9.34;100.00
68594;BME280;55563;52.416;13.548;2024-03-22T07:42:59;101200.47;;;9.30;100.00
68594;BME280;55563;52.416;13.548;2024-03-22T07:45:00;101215.16;;;9.31;100.00
68594;BME280;55563;52.416;13.548;2024-03-22T07:47:00;101202.47;;;9.39;100.00
68594;BME280;55563;52.416;13.548;2024-03-22T07:49:01;101203.94;;;9.35;100.00
68594;BME280;55563;52.416;13.548;2024-03-22T07:51:02;101191.41;;;9.37;100.00
68594;BME280;55563;52.416;13.548;2024-03-22T07:53:03;101195.16;;;9.41;100.00
68594;BME280;55563;52.416;13.548;2024-03-22T07:55:03;101201.75;;;9.44;100.00
68594;BME280;55563;52.416;13.548;2024-03-22T07:57:04;101193.53;;;9.40;100.00
68594;BME280;55563;52.416;13.548;2024-03-22T07:59:05;101202.22;;;9.41;100.00
68594;BME280;55563;52.416;13.548;2024-03-22T08:01:05;101198.34;;;9.43;100.00
68594;BME280;55563;52.416;13.548;2024-03-22T08:03:06;101185.44;;;9.42;100.00
68594;BME280;55563;52.416;13.548;2024-03-22T08:05:06;101194.28;;;9.52;100.00
68594;BME280;55563;52.416;13.548;2024-03-22T08:07:07;101188.97;;;9.47;100.00
68594;BME280;55563;52.416;13.548;2024-03-22T08:09:07;101182.44;;;9.50;100.00
68594;BME280;55563;52.416;13.548;2024-03-22T08:11:08;101184.91;;;9.56;100.00
68594;BME280;55563;52.416;13.548;2024-03-22T08:13:10;101192.06;;;9.61;100.00
68594;BME280;55563;52.416;13.548;2024-03-22T08:15:11;101189.53;;;9.66;100.00
68594;BME280;55563;52.416;13.548;2024-03-22T08:17:11;101183.56;;;9.71;100.00
68594;BME280;55563;52.416;13.548;2024-03-22T08:19:12;101189.59;;;9.71;100.00
68594;BME280;55563;52.416;13.548;2024-03-22T08:21:13;101176.66;;;9.81;100.00
68594;BME280;55563;52.416;13.548;2024-03-22T08:23:14;101174.25;;;9.80;100.00
68594;BME280;55563;52.416;13.548;2024-03-22T08:25:14;101171.25;;;9.88;100.00
68594;BME280;55563;52.416;13.548;2024-03-22T08:27:18;101166.03;;;9.93;100.00
68594;BME280;55563;52.416;13.548;2024-03-22T08:29:18;101166.28;;;9.91;100.00
68594;BME280;55563;52.416;13.548;2024-03-22T08:31:19;101162.63;;;9.92;100.00
68594;BME280;55563;52.416;13.548;2024-03-22T08:33:25;101168.34;;;9.89;100.00
68594;BME280;55563;52.416;13.548;2024-03-22T08:35:26;101164.78;;;9.95;100.00
68594;BME280;55563;52.416;13.548;2024-03-22T08:37:26;101169.78;;;9.97;100.00
68594;BME280;55563;52.416;13.548;2024-03-22T08:39:27;101168.19;;;9.96;100.00
68594;BME280;55563;52.416;13.548;2024-03-22T08:41:28;101162.53;;;10.04;100.00
68594;BME280;55563;52.416;13.548;2024-03-22T08:43:29;101151.50;;;10.02;100.00
68594;BME280;55563;52.416;13.548;2024-03-22T08:45:29;101154.50;;;10.11;100.00
68594;BME280;55563;52.416;13.548;2024-03-22T08:47:30;101153.13;;;10.08;100.00
68594;BME280;55563;52.416;13.548;2024-03-22T08:49:31;101144.63;;;10.18;100.00
68594;BME280;55563;52.416;13.548;2024-03-22T08:51:32;101142.25;;;10.16;100.00
68594;BME280;55563;52.416;13.548;2024-03-22T08:53:32;101128.84;;;10.18;100.00
68594;BME280;55563;52.416;13.548;2024-03-22T08:55:33;101138.63;;;10.22;100.00
68594;BME280;55563;52.416;13.548;2024-03-22T08:57:34;101115.00;;;10.22;100.00
68594;BME280;55563;52.416;13.548;2024-03-22T08:59:34;101113.16;;;10.23;100.00
68594;BME280;55563;52.416;13.548;2024-03-22T09:01:35;101109.19;;;10.42;100.00
68594;BME280;55563;52.416;13.548;2024-03-22T09:03:36;101098.75;;;10.47;100.00
68594;BME280;55563;52.416;13.548;2024-03-22T09:05:37;101098.28;;;10.50;100.00
68594;BME280;55563;52.416;13.548;2024-03-22T09:07:38;101100.56;;;10.46;100.00
68594;BME280;55563;52.416;13.548;2024-03-22T09:09:38;101094.84;;;10.49;100.00
68594;BME280;55563;52.416;13.548;2024-03-22T09:11:39;101096.16;;;10.52;100.00
68594;BME280;55563;52.416;13.548;2024-03-22T09:13:40;101084.38;;;10.55;100.00
68594;BME280;55563;52.416;13.548;2024-03-22T09:15:40;101083.31;;;10.56;100.00
68594;BME280;55563;52.416;13.548;2024-03-22T09:17:42;101093.03;;;10.55;100.00
68594;BME280;55563;52.416;13.548;2024-03-22T09:19:42;101088.34;;;10.57;100.00
68594;BME280;55563;52.416;13.548;2024-03-22T09:21:43;101077.66;;;10.64;100.00
68594;BME280;55563;52.416;13.548;2024-03-22T09:23:43;101076.09;;;10.68;100.00
68594;BME280;55563;52.416;13.548;2024-03-22T09:25:45;101071.13;;;10.71;100.00
68594;BME280;55563;52.416;13.548;2024-03-22T09:27:46;101081.16;;;10.74;100.00
68594;BME280;55563;52.416;13.548;2024-03-22T09:29:48;101068.56;;;10.76;100.00
68594;BME280;55563;52.416;13.548;2024-03-22T09:31:49;101070.44;;;10.81;100.00
68594;BME280;55563;52.416;13.548;2024-03-22T09:33:51;101065.75;;;10.83;100.00
68594;BME280;55563;52.416;13.548;2024-03-22T09:35:51;101071.56;;;10.90;100.00
68594;BME280;55563;52.416;13.548;2024-03-22T09:37:52;101069.97;;;10.89;100.00
68594;BME280;55563;52.416;13.548;2024-03-22T09:39:53;101072.22;;;11.02;100.00
68594;BME280;55563;52.416;13.548;2024-03-22T09:41:56;101068.09;;;11.11;100.00
68594;BME280;55563;52.416;13.548;2024-03-22T09:43:58;101070.72;;;11.11;100.00
68594;BME280;55563;52.416;13.548;2024-03-22T09:46:01;101073.41;;;11.16;100.00
68594;BME280;55563;52.416;13.548;2024-03-22T09:48:02;101070.75;;;11.16;100.00
68594;BME280;55563;52.416;13.548;2024-03-22T09:50:07;101057.88;;;11.20;100.00
68594;BME280;55563;52.416;13.548;2024-03-22T09:52:09;101070.34;;;11.29;100.00
68594;BME280;55563;52.416;13.548;2024-03-22T09:54:10;101068.25;;;11.31;100.00
68594;BME280;55563;52.416;13.548;2024-03-22T09:56:14;101062.22;;;11.36;100.00
68594;BME280;55563;52.416;13.548;2024-03-22T09:58:15;101063.78;;;11.37;100.00
68594;BME280;55563;52.416;13.548;2024-03-22T10:00:18;101064.16;;;11.46;100.00
68594;BME280;55563;52.416;13.548;2024-03-22T10:02:20;101059.41;;;11.48;100.00
68594;BME280;55563;52.416;13.548;2024-03-22T10:04:21;101059.66;;;11.46;100.00
68594;BME280;55563;52.416;13.548;2024-03-22T10:06:22;101060.00;;;11.55;100.00
68594;BME280;55563;52.416;13.548;2024-03-22T10:08:22;101050.25;;;11.55;100.00
68594;BME280;55563;52.416;13.548;2024-03-22T10:10:23;101043.63;;;11.53;100.00
68594;BME280;55563;52.416;13.548;2024-03-22T10:12:24;101042.31;;;11.50;100.00
68594;BME280;55563;52.416;13.548;2024-03-22T10:14:26;101041.28;;;11.56;100.00
68594;BME280;55563;52.416;13.548;2024-03-22T10:16:27;101048.41;;;11.61;100.00
68594;BME280;55563;52.416;13.548;2024-03-22T10:18:27;101050.59;;;11.69;100.00
68594;BME280;55563;52.416;13.548;2024-03-22T10:20:28;101048.81;;;11.74;100.00
68594;BME280;55563;52.416;13.548;2024-03-22T10:22:29;101048.84;;;11.79;100.00